Time;durP1;ratioP1;P1;durP2;ratioP2;P2;SDS_P1;SDS_P2;PMS_P1;PMS_P2;Temp;Humidity;BMP_temperature;BMP_pressure;BME280_temperature;BME280_humidity;BME280_pressure;Samples;Min_cycle;Max_cycle;Signal;HPM_P1;HPM_P2
2023/12/16 00:02:21;;;;;;;7.32;4.40;;;9.00;99.90;;;;;;5062843;28;20020;-35
2023/12/16 00:04:47;;;;;;;6.78;3.42;;;9.00;99.90;;;;;;5062432;28;20110;-39
2023/12/16 00:07:12;;;;;;;7.88;4.25;;;9.00;99.90;;;;;;5061862;28;20589;-35
2023/12/16 00:09:38;;;;;;;8.20;4.93;;;9.00;99.90;;;;;;5062223;28;20025;-36
2023/12/16 00:12:04;;;;;;;10.18;5.65;;;9.00;99.90;;;;;;5061093;28;20379;-36
2023/12/16 00:14:35;;;;;;;10.73;5.50;;;8.90;99.90;;;;;;5062185;28;20089;-36
2023/12/16 00:17:00;;;;;;;10.68;5.75;;;8.90;99.90;;;;;;5062213;28;20016;-35
2023/12/16 00:19:26;;;;;;;12.73;6.53;;;8.90;99.90;;;;;;5061280;28;20077;-40
2023/12/16 00:21:51;;;;;;;12.88;6.20;;;8.90;99.90;;;;;;5061882;28;20506;-35
2023/12/16 00:24:17;;;;;;;9.82;5.95;;;8.90;99.90;;;;;;5061032;28;20815;-37
2023/12/16 00:26:42;;;;;;;11.02;5.30;;;8.90;99.90;;;;;;5061006;28;20024;-36
2023/12/16 00:29:08;;;;;;;8.48;4.75;;;8.90;99.90;;;;;;5061754;28;20551;-35
2023/12/16 00:31:34;;;;;;;9.43;4.68;;;8.90;99.90;;;;;;5061547;28;20156;-36
2023/12/16 00:33:59;;;;;;;8.82;4.68;;;8.90;99.90;;;;;;5060824;28;20021;-35
2023/12/16 00:36:25;;;;;;;6.60;3.67;;;8.90;99.90;;;;;;5060930;28;20016;-36
2023/12/16 00:38:54;;;;;;;7.22;3.85;;;8.90;99.90;;;;;;5061253;28;20032;-36
2023/12/16 00:41:20;;;;;;;9.60;3.95;;;9.00;99.90;;;;;;5060973;28;20044;-36
2023/12/16 00:43:45;;;;;;;6.18;3.40;;;8.90;99.90;;;;;;5061705;28;20036;-36
2023/12/16 00:46:11;;;;;;;9.07;3.33;;;8.90;99.90;;;;;;5061019;28;20098;-36
2023/12/16 00:48:36;;;;;;;5.88;3.28;;;9.00;99.90;;;;;;5060679;28;20107;-35
2023/12/16 00:51:02;;;;;;;6.22;3.00;;;8.90;99.90;;;;;;5060692;28;20125;-36
2023/12/16 00:53:28;;;;;;;7.07;3.08;;;9.00;99.90;;;;;;5061353;28;20479;-36
2023/12/16 00:55:53;;;;;;;5.65;2.72;;;9.00;99.90;;;;;;5060968;28;20028;-36
2023/12/16 00:58:19;;;;;;;4.75;2.50;;;9.00;99.90;;;;;;5061414;28;20033;-36
2023/12/16 01:00:44;;;;;;;5.97;2.20;;;9.00;99.90;;;;;;5059879;28;20037;-36
2023/12/16 01:03:10;;;;;;;5.95;2.90;;;9.00;99.90;;;;;;5060180;28;20017;-36
2023/12/16 01:05:37;;;;;;;5.38;2.42;;;9.00;99.90;;;;;;5060582;28;20056;-35
2023/12/16 01:08:03;;;;;;;6.05;2.20;;;9.00;99.90;;;;;;5059816;28;20090;-36
2023/12/16 01:10:29;;;;;;;5.70;2.38;;;9.00;99.90;;;;;;5061351;28;20041;-36
2023/12/16 01:12:57;;;;;;;6.35;2.13;;;8.90;99.90;;;;;;5060856;28;20878;-35
2023/12/16 01:15:23;;;;;;;9.35;2.35;;;8.90;99.90;;;;;;5060335;28;20024;-36
2023/12/16 01:17:48;;;;;;;6.10;2.80;;;8.90;99.90;;;;;;5060525;28;20036;-37
2023/12/16 01:20:15;;;;;;;4.65;2.10;;;8.90;99.90;;;;;;5061286;28;20043;-37
2023/12/16 01:22:40;;;;;;;4.97;2.15;;;8.90;99.90;;;;;;5060637;28;20027;-36
2023/12/16 01:25:06;;;;;;;4.25;1.83;;;8.90;99.90;;;;;;5060575;28;20033;-38
2023/12/16 01:27:32;;;;;;;5.75;1.92;;;8.90;99.90;;;;;;5061039;28;20070;-37
2023/12/16 01:29:58;;;;;;;5.82;2.42;;;8.90;99.90;;;;;;5060240;28;20033;-35
2023/12/16 01:32:23;;;;;;;5.13;1.63;;;8.90;99.90;;;;;;5061257;28;20517;-37
2023/12/16 01:34:49;;;;;;;5.75;1.80;;;8.90;99.90;;;;;;5061068;28;20081;-37
2023/12/16 01:37:15;;;;;;;4.85;2.00;;;8.80;99.90;;;;;;5060298;28;20023;-37
2023/12/16 01:39:40;;;;;;;4.40;1.80;;;8.80;99.90;;;;;;5061364;28;20072;-37
2023/12/16 01:42:06;;;;;;;4.40;1.92;;;8.80;99.90;;;;;;5060996;28;20104;-38
2023/12/16 01:44:32;;;;;;;5.43;2.00;;;8.70;99.90;;;;;;5060540;28;20070;-35
2023/12/16 01:46:57;;;;;;;3.50;1.63;;;8.70;99.90;;;;;;5061268;28;20551;-39
2023/12/16 01:49:24;;;;;;;2.17;1.50;;;8.60;99.90;;;;;;5060571;28;20033;-36
2023/12/16 01:51:50;;;;;;;2.80;1.50;;;8.60;99.90;;;;;;5059308;28;20052;-36
2023/12/16 01:54:16;;;;;;;3.67;1.50;;;8.50;99.90;;;;;;5059885;28;20435;-37
2023/12/16 01:56:42;;;;;;;4.45;1.70;;;8.50;99.90;;;;;;5059661;28;20692;-36
2023/12/16 01:59:09;;;;;;;4.43;1.60;;;8.50;99.90;;;;;;5058253;28;20125;-36
2023/12/16 02:01:35;;;;;;;3.97;1.70;;;8.50;99.90;;;;;;5059361;28;20483;-36
2023/12/16 02:04:01;;;;;;;3.63;1.58;;;8.40;99.90;;;;;;5058784;28;20091;-43
2023/12/16 02:06:27;;;;;;;5.22;1.80;;;8.40;99.90;;;;;;5060578;28;20113;-36
2023/12/16 02:08:53;;;;;;;5.22;1.92;;;8.40;99.90;;;;;;5060102;28;20051;-36
2023/12/16 02:11:18;;;;;;;3.10;1.88;;;8.40;99.90;;;;;;5060862;28;20704;-36
2023/12/16 02:13:44;;;;;;;5.15;1.70;;;8.40;99.90;;;;;;5061374;28;20166;-36
2023/12/16 02:16:10;;;;;;;6.82;2.20;;;8.30;99.90;;;;;;5061123;28;20029;-39
2023/12/16 02:18:36;;;;;;;4.35;1.98;;;8.30;99.90;;;;;;5060232;28;20028;-36
2023/12/16 02:21:02;;;;;;;4.25;2.10;;;8.30;99.90;;;;;;5060656;28;20041;-37
2023/12/16 02:23:28;;;;;;;6.78;2.55;;;8.30;99.90;;;;;;5061292;28;20051;-36
2023/12/16 02:25:53;;;;;;;5.30;1.80;;;8.30;99.90;;;;;;5059372;28;20073;-36
2023/12/16 02:28:19;;;;;;;7.07;2.58;;;8.30;99.90;;;;;;5060115;28;20033;-36
2023/12/16 02:30:44;;;;;;;4.72;2.00;;;8.30;99.90;;;;;;5059395;28;20059;-36
2023/12/16 02:33:10;;;;;;;4.40;1.85;;;8.30;99.90;;;;;;5058682;28;20033;-36
2023/12/16 02:35:36;;;;;;;3.58;2.05;;;8.30;99.90;;;;;;5059251;28;20024;-36
2023/12/16 02:38:02;;;;;;;6.07;1.80;;;8.30;99.90;;;;;;5059239;28;20032;-35
2023/12/16 02:40:27;;;;;;;5.43;2.00;;;8.20;99.90;;;;;;5058656;28;20040;-35
2023/12/16 02:42:53;;;;;;;3.90;2.03;;;8.20;99.90;;;;;;5059678;28;20024;-35
2023/12/16 02:45:19;;;;;;;4.65;2.05;;;8.20;99.90;;;;;;5059947;28;20654;-35
2023/12/16 02:47:44;;;;;;;3.75;1.70;;;8.10;99.90;;;;;;5062517;28;20028;-35
2023/12/16 02:50:10;;;;;;;4.85;1.98;;;8.10;99.90;;;;;;5064303;28;20016;-36
2023/12/16 02:52:36;;;;;;;5.03;2.10;;;8.10;99.90;;;;;;5064588;28;20052;-37
2023/12/16 02:55:02;;;;;;;4.80;1.90;;;8.00;99.90;;;;;;5063255;28;20028;-36
2023/12/16 02:57:27;;;;;;;4.30;1.95;;;8.00;99.90;;;;;;5063928;28;20025;-36
2023/12/16 02:59:53;;;;;;;4.68;1.83;;;8.00;99.90;;;;;;5063389;28;20249;-37
2023/12/16 03:02:18;;;;;;;4.55;1.98;;;8.00;99.90;;;;;;5062966;28;20116;-36
2023/12/16 03:04:44;;;;;;;4.80;1.95;;;7.90;99.90;;;;;;5063504;28;20123;-36
2023/12/16 03:07:10;;;;;;;4.85;2.30;;;7.90;99.90;;;;;;5063682;28;20108;-36
2023/12/16 03:09:36;;;;;;;7.03;2.35;;;7.90;99.90;;;;;;5063179;28;20513;-35
2023/12/16 03:12:01;;;;;;;5.85;2.33;;;7.90;99.90;;;;;;5063358;28;20029;-37
2023/12/16 03:14:27;;;;;;;5.32;2.30;;;7.80;99.90;;;;;;5063388;28;20601;-36
2023/12/16 03:16:57;;;;;;;5.57;2.40;;;7.80;99.90;;;;;;5063358;28;20819;-37
2023/12/16 03:19:22;;;;;;;6.03;2.22;;;7.80;99.90;;;;;;5063435;28;20037;-37
2023/12/16 03:21:48;;;;;;;5.75;2.25;;;7.70;99.90;;;;;;5063057;28;20029;-38
2023/12/16 03:24:14;;;;;;;5.32;2.65;;;7.70;99.90;;;;;;5062982;28;20032;-36
2023/12/16 03:26:39;;;;;;;5.72;2.28;;;7.70;99.90;;;;;;5062670;28;20597;-36
2023/12/16 03:29:05;;;;;;;3.95;2.30;;;7.70;99.90;;;;;;5062367;28;20036;-36
2023/12/16 03:31:30;;;;;;;6.28;2.75;;;7.60;99.90;;;;;;5062877;28;20035;-36
2023/12/16 03:33:56;;;;;;;7.20;2.78;;;7.60;99.90;;;;;;5063151;28;20025;-37
2023/12/16 03:36:22;;;;;;;6.22;2.65;;;7.60;99.90;;;;;;5063030;28;20372;-37
2023/12/16 03:38:48;;;;;;;6.90;2.80;;;7.60;99.90;;;;;;5052086;28;20155;-37
2023/12/16 03:41:13;;;;;;;4.53;2.65;;;7.60;99.90;;;;;;5063276;28;20044;-37
2023/12/16 03:43:39;;;;;;;6.07;2.72;;;7.60;99.90;;;;;;5062145;28;20351;-37
2023/12/16 03:46:05;;;;;;;6.60;3.10;;;7.60;99.90;;;;;;5061979;28;20028;-36
2023/12/16 03:48:33;;;;;;;5.50;2.53;;;7.60;99.90;;;;;;5061959;28;20563;-37
2023/12/16 03:50:59;;;;;;;5.85;3.08;;;7.60;99.90;;;;;;5061401;28;20105;-36
2023/12/16 03:53:24;;;;;;;9.68;3.40;;;7.60;99.90;;;;;;5061944;28;20024;-36
2023/12/16 03:55:50;;;;;;;5.28;3.10;;;7.60;99.90;;;;;;5062122;28;20907;-37
2023/12/16 03:58:16;;;;;;;6.50;3.22;;;7.50;99.90;;;;;;5060859;28;20479;-37
2023/12/16 04:00:41;;;;;;;7.85;3.45;;;7.50;99.90;;;;;;5062126;28;20063;-37
2023/12/16 04:03:07;;;;;;;8.35;3.38;;;7.50;99.90;;;;;;5061461;28;20365;-37
2023/12/16 04:05:32;;;;;;;6.28;2.85;;;7.50;99.90;;;;;;5061576;28;20331;-45
2023/12/16 04:07:58;;;;;;;7.60;3.20;;;7.60;99.90;;;;;;5061530;28;20577;-36
2023/12/16 04:10:24;;;;;;;6.78;3.28;;;7.60;99.90;;;;;;5062502;28;20028;-36
2023/12/16 04:12:49;;;;;;;5.85;3.00;;;7.60;99.90;;;;;;5061496;28;20025;-36
2023/12/16 04:15:15;;;;;;;8.20;3.60;;;7.60;99.90;;;;;;5062382;28;20435;-36
2023/12/16 04:17:41;;;;;;;7.88;3.22;;;7.60;99.90;;;;;;5061770;28;20016;-36
2023/12/16 04:20:07;;;;;;;7.25;3.22;;;7.60;99.90;;;;;;5061553;28;20032;-36
2023/12/16 04:22:32;;;;;;;6.43;3.17;;;7.60;99.90;;;;;;5061486;28;20719;-36
2023/12/16 04:24:58;;;;;;;8.27;3.33;;;7.60;99.90;;;;;;5060533;28;20021;-36
2023/12/16 04:27:25;;;;;;;7.15;2.83;;;7.60;99.90;;;;;;5061452;28;20411;-36
2023/12/16 04:29:50;;;;;;;6.57;2.80;;;7.70;99.90;;;;;;5061124;28;20031;-36
2023/12/16 04:32:16;;;;;;;7.03;3.05;;;7.70;99.90;;;;;;5061306;28;20028;-38
2023/12/16 04:34:41;;;;;;;7.53;3.17;;;7.70;99.90;;;;;;5061225;28;20028;-36
2023/12/16 04:37:07;;;;;;;6.85;3.00;;;7.70;99.90;;;;;;5061306;28;20700;-37
2023/12/16 04:39:33;;;;;;;4.65;2.92;;;7.80;99.90;;;;;;5060246;28;20052;-37
2023/12/16 04:41:58;;;;;;;7.43;2.97;;;7.70;99.90;;;;;;5060843;28;20036;-36
2023/12/16 04:44:24;;;;;;;8.13;2.80;;;7.80;99.90;;;;;;5060847;28;20079;-36
2023/12/16 04:46:49;;;;;;;7.47;3.35;;;7.70;99.90;;;;;;5061217;28;20459;-37
2023/12/16 04:49:15;;;;;;;6.38;2.83;;;7.70;99.90;;;;;;5061670;28;20032;-37
2023/12/16 04:51:41;;;;;;;4.50;3.00;;;7.70;99.90;;;;;;5061710;28;20056;-36
2023/12/16 04:54:06;;;;;;;8.38;3.10;;;7.70;99.90;;;;;;5060630;28;20423;-37
2023/12/16 04:56:32;;;;;;;5.22;2.58;;;7.60;99.90;;;;;;5060774;28;20461;-36
2023/12/16 04:59:01;;;;;;;8.95;3.08;;;7.60;99.90;;;;;;5060731;28;20856;-37
2023/12/16 05:01:26;;;;;;;7.05;3.10;;;7.60;99.90;;;;;;5060600;28;20081;-37
2023/12/16 05:03:52;;;;;;;7.00;3.15;;;7.60;99.90;;;;;;5060706;28;20403;-40
2023/12/16 05:06:18;;;;;;;4.90;2.70;;;7.50;99.90;;;;;;5061402;28;20686;-36
2023/12/16 05:08:44;;;;;;;5.03;2.90;;;7.50;99.90;;;;;;5060863;28;20024;-36
2023/12/16 05:11:09;;;;;;;7.10;2.65;;;7.50;99.90;;;;;;5059898;28;20029;-36
2023/12/16 05:13:35;;;;;;;5.70;2.70;;;7.50;99.90;;;;;;5061179;28;20028;-36
2023/12/16 05:16:00;;;;;;;4.30;2.50;;;7.40;99.90;;;;;;5059748;28;20036;-35
2023/12/16 05:18:26;;;;;;;5.32;2.45;;;7.40;99.90;;;;;;5041343;28;20361;-36
2023/12/16 05:20:51;;;;;;;5.90;3.03;;;7.40;99.90;;;;;;5054496;28;20127;-37
2023/12/16 05:23:17;;;;;;;4.30;2.67;;;7.40;99.90;;;;;;5060551;28;20056;-37
2023/12/16 05:25:43;;;;;;;4.15;2.40;;;7.30;99.90;;;;;;5060846;28;20025;-38
2023/12/16 05:28:08;;;;;;;5.13;2.42;;;7.30;99.90;;;;;;5059994;28;20025;-36
2023/12/16 05:30:34;;;;;;;6.78;3.15;;;7.30;99.90;;;;;;5060406;28;20127;-36
2023/12/16 05:33:00;;;;;;;8.07;3.05;;;7.20;99.90;;;;;;5060555;28;20052;-36
2023/12/16 05:35:25;;;;;;;7.32;3.47;;;7.20;99.90;;;;;;5059355;28;20009;-36
2023/12/16 05:37:51;;;;;;;6.20;2.83;;;7.10;99.90;;;;;;5060088;28;20733;-37
2023/12/16 05:40:17;;;;;;;5.53;2.88;;;7.10;99.90;;;;;;5059984;28;20033;-36
2023/12/16 05:42:42;;;;;;;5.82;2.95;;;7.10;99.90;;;;;;5059897;28;20020;-35
2023/12/16 05:45:08;;;;;;;7.63;3.25;;;7.10;99.90;;;;;;5061208;28;20020;-36
2023/12/16 05:47:34;;;;;;;8.23;3.13;;;7.10;99.90;;;;;;5061557;28;20032;-36
2023/12/16 05:50:00;;;;;;;6.78;2.70;;;7.10;99.90;;;;;;5060143;28;20431;-35
2023/12/16 05:52:26;;;;;;;8.98;3.40;;;7.10;99.90;;;;;;5060200;28;20072;-36
2023/12/16 05:54:54;;;;;;;5.00;3.05;;;7.00;99.90;;;;;;5060625;28;20020;-36
2023/12/16 05:57:19;;;;;;;6.57;3.33;;;7.00;99.90;;;;;;5060396;28;20029;-36
2023/12/16 05:59:45;;;;;;;5.57;2.72;;;7.00;99.90;;;;;;5060737;28;20033;-36
2023/12/16 06:02:11;;;;;;;7.05;3.42;;;7.00;99.90;;;;;;5061073;28;20017;-36
2023/12/16 06:04:36;;;;;;;7.10;2.95;;;7.00;99.90;;;;;;5059746;28;20371;-37
2023/12/16 06:07:02;;;;;;;5.30;2.80;;;7.00;99.90;;;;;;5060695;28;20020;-35
2023/12/16 06:09:28;;;;;;;8.93;2.80;;;7.00;99.90;;;;;;5060551;28;20025;-37
2023/12/16 06:11:55;;;;;;;6.43;2.88;;;7.00;99.90;;;;;;5059684;28;20161;-37
2023/12/16 06:14:21;;;;;;;7.72;3.00;;;7.00;99.90;;;;;;5060733;28;20086;-36
2023/12/16 06:16:47;;;;;;;8.65;2.92;;;7.00;99.90;;;;;;5059971;28;20012;-42
2023/12/16 06:19:12;;;;;;;6.47;2.70;;;7.00;99.90;;;;;;5059160;28;20832;-36
2023/12/16 06:21:38;;;;;;;8.43;2.80;;;6.90;99.90;;;;;;5061041;28;20032;-36
2023/12/16 06:24:05;;;;;;;5.50;3.00;;;6.90;99.90;;;;;;5063475;28;20107;-37
2023/12/16 06:26:31;;;;;;;6.40;2.88;;;6.90;99.90;;;;;;5064099;28;20033;-37
2023/12/16 06:28:57;;;;;;;7.75;3.60;;;6.90;99.90;;;;;;5063253;28;20034;-37
2023/12/16 06:31:22;;;;;;;5.43;3.03;;;6.90;99.90;;;;;;5064154;28;20024;-36
2023/12/16 06:33:48;;;;;;;6.45;3.00;;;6.90;99.90;;;;;;5064163;28;20525;-36
2023/12/16 06:36:13;;;;;;;5.13;2.70;;;6.90;99.90;;;;;;5062791;28;20024;-36
2023/12/16 06:38:39;;;;;;;7.20;2.70;;;6.80;99.90;;;;;;5063436;28;20032;-36
2023/12/16 06:41:05;;;;;;;8.60;2.88;;;6.80;99.90;;;;;;5063498;28;20045;-37
2023/12/16 06:43:31;;;;;;;3.95;2.53;;;6.80;99.90;;;;;;5063636;28;20097;-37
2023/12/16 06:45:57;;;;;;;5.25;3.00;;;6.90;99.90;;;;;;5063493;28;20349;-36
2023/12/16 06:48:22;;;;;;;6.18;3.13;;;6.80;99.90;;;;;;5064295;28;20020;-36
2023/12/16 06:50:51;;;;;;;5.75;2.85;;;6.80;99.90;;;;;;5063835;28;20859;-37
2023/12/16 06:53:17;;;;;;;5.03;2.83;;;6.80;99.90;;;;;;5062951;28;20020;-36
2023/12/16 06:55:42;;;;;;;11.60;3.40;;;6.80;99.90;;;;;;5063327;28;20481;-36
2023/12/16 06:58:08;;;;;;;5.13;2.50;;;6.90;99.90;;;;;;5063527;28;20344;-36
2023/12/16 07:00:34;;;;;;;8.02;3.00;;;6.80;99.90;;;;;;5063393;28;20341;-36
2023/12/16 07:03:00;;;;;;;6.80;2.92;;;6.80;99.90;;;;;;5063869;28;20069;-37
2023/12/16 07:05:27;;;;;;;5.95;2.60;;;6.80;99.90;;;;;;5063257;28;20479;-37
2023/12/16 07:07:53;;;;;;;8.20;2.85;;;6.80;99.90;;;;;;5062960;28;20020;-37
2023/12/16 07:10:22;;;;;;;6.03;2.55;;;6.80;99.90;;;;;;5063069;28;20044;-37
2023/12/16 07:12:47;;;;;;;7.60;2.58;;;6.80;99.90;;;;;;5063821;28;20028;-37
2023/12/16 07:15:13;;;;;;;4.15;2.92;;;6.70;99.90;;;;;;5061742;28;20028;-35
2023/12/16 07:17:40;;;;;;;7.07;3.17;;;6.70;99.90;;;;;;5063189;28;20036;-38
2023/12/16 07:20:07;;;;;;;8.07;3.05;;;6.70;99.90;;;;;;5062575;28;20079;-37
2023/12/16 07:22:32;;;;;;;5.85;2.88;;;6.70;99.90;;;;;;5062299;28;20036;-37
2023/12/16 07:24:58;;;;;;;6.28;2.30;;;6.70;99.90;;;;;;5062395;28;20032;-37
2023/12/16 07:27:24;;;;;;;5.82;2.80;;;6.70;99.90;;;;;;5063237;28;20020;-39
2023/12/16 07:29:50;;;;;;;4.88;2.88;;;6.60;99.90;;;;;;5062490;28;20094;-37
2023/12/16 07:32:16;;;;;;;6.07;2.40;;;6.70;99.90;;;;;;5062920;28;20487;-37
2023/12/16 07:34:42;;;;;;;6.75;3.05;;;6.70;99.90;;;;;;5061939;28;20112;-37
2023/12/16 07:37:07;;;;;;;7.20;2.63;;;6.70;99.90;;;;;;5062465;28;20119;-38
2023/12/16 07:39:33;;;;;;;5.80;2.75;;;6.60;99.90;;;;;;5061656;28;20102;-36
2023/12/16 07:41:58;;;;;;;6.68;3.20;;;6.70;99.90;;;;;;5061793;28;20437;-36
2023/12/16 07:44:28;;;;;;;7.20;3.10;;;6.70;99.90;;;;;;5063239;28;20688;-35
2023/12/16 07:46:54;;;;;;;5.70;3.03;;;6.60;99.90;;;;;;5062966;28;20032;-36
2023/12/16 07:49:24;;;;;;;5.00;2.50;;;6.60;99.90;;;;;;5061691;28;20094;-36
2023/12/16 07:51:54;;;;;;;6.93;2.83;;;6.60;99.90;;;;;;5059008;28;20113;-35
2023/12/16 07:54:24;;;;;;;7.57;2.72;;;6.70;99.90;;;;;;5062454;28;20112;-35
2023/12/16 07:56:50;;;;;;;8.77;3.25;;;6.60;99.90;;;;;;5061800;28;20074;-37
2023/12/16 07:59:16;;;;;;;6.68;2.92;;;6.60;99.90;;;;;;5063071;28;20036;-35
2023/12/16 08:01:41;;;;;;;6.15;3.20;;;6.70;99.90;;;;;;5062749;28;20903;-37
2023/12/16 08:04:10;;;;;;;8.30;3.30;;;6.60;99.90;;;;;;5061729;28;20035;-39
2023/12/16 08:06:37;;;;;;;6.03;3.25;;;6.60;99.90;;;;;;5062136;28;20020;-37
2023/12/16 08:09:04;;;;;;;8.55;3.47;;;6.60;99.90;;;;;;5062794;28;20035;-40
2023/12/16 08:11:30;;;;;;;5.95;2.92;;;6.70;99.90;;;;;;5061781;28;20042;-36
2023/12/16 08:13:55;;;;;;;7.82;3.08;;;6.70;99.90;;;;;;5062363;28;20037;-36
2023/12/16 08:16:21;;;;;;;9.60;3.50;;;6.70;99.90;;;;;;5062635;28;20024;-36
2023/12/16 08:18:46;;;;;;;5.85;3.40;;;6.70;99.90;;;;;;5061476;28;20024;-37
2023/12/16 08:21:18;;;;;;;9.48;3.10;;;6.70;99.90;;;;;;5061925;28;20040;-36
2023/12/16 08:23:45;;;;;;;6.13;3.15;;;6.70;99.90;;;;;;5061502;28;20032;-38
2023/12/16 08:26:10;;;;;;;6.93;3.05;;;6.80;99.90;;;;;;5060793;28;20036;-37
2023/12/16 08:28:42;;;;;;;9.63;3.45;;;6.80;99.90;;;;;;5062261;28;20032;-37
2023/12/16 08:31:07;;;;;;;5.32;2.47;;;6.90;99.90;;;;;;5060223;28;20028;-37
2023/12/16 08:33:35;;;;;;;4.82;2.42;;;6.90;99.90;;;;;;5061746;28;20051;-36
2023/12/16 08:36:01;;;;;;;6.53;2.55;;;7.00;99.90;;;;;;5062500;28;20098;-38
2023/12/16 08:38:28;;;;;;;9.52;2.97;;;7.00;99.90;;;;;;5061699;28;20051;-37
2023/12/16 08:40:57;;;;;;;7.53;2.55;;;7.00;99.90;;;;;;5061671;28;20044;-37
2023/12/16 08:43:23;;;;;;;5.68;2.40;;;7.10;99.90;;;;;;5061501;28;20434;-36
2023/12/16 08:45:49;;;;;;;6.97;3.13;;;7.20;99.90;;;;;;5060165;28;20107;-37
2023/12/16 08:48:14;;;;;;;6.97;2.95;;;7.30;99.90;;;;;;5061019;28;20395;-45
2023/12/16 08:50:40;;;;;;;6.05;2.85;;;7.40;99.90;;;;;;5062119;28;20032;-37
2023/12/16 08:53:09;;;;;;;5.88;2.35;;;7.50;99.90;;;;;;5060304;28;20055;-36
2023/12/16 08:55:35;;;;;;;7.65;2.53;;;7.60;99.90;;;;;;5061034;28;20038;-36
2023/12/16 08:58:00;;;;;;;4.63;2.10;;;7.70;99.90;;;;;;5060957;28;20025;-36
2023/12/16 09:00:26;;;;;;;9.98;3.08;;;7.80;99.90;;;;;;5060660;28;20037;-36
2023/12/16 09:02:52;;;;;;;5.32;2.28;;;7.90;99.90;;;;;;5060106;28;20574;-37
2023/12/16 09:05:19;;;;;;;6.38;2.40;;;8.00;99.90;;;;;;5061096;28;20105;-37
2023/12/16 09:07:45;;;;;;;3.67;1.90;;;8.10;99.90;;;;;;5059601;28;20031;-37
2023/12/16 09:10:13;;;;;;;9.23;2.75;;;8.10;99.90;;;;;;5061073;28;20032;-36
2023/12/16 09:12:38;;;;;;;5.25;2.53;;;8.20;99.90;;;;;;5060807;28;20119;-36
2023/12/16 09:15:05;;;;;;;7.47;2.85;;;8.20;99.90;;;;;;5059987;28;20123;-37
2023/12/16 09:17:31;;;;;;;6.70;2.30;;;8.30;99.90;;;;;;5061076;28;20023;-38
2023/12/16 09:19:56;;;;;;;6.50;2.53;;;8.30;99.90;;;;;;5060401;28;20048;-36
2023/12/16 09:22:23;;;;;;;11.55;3.28;;;8.40;99.90;;;;;;5060245;28;20024;-36
2023/12/16 09:24:49;;;;;;;7.05;2.80;;;8.40;99.90;;;;;;5061965;28;20017;-37
2023/12/16 09:27:14;;;;;;;8.23;2.78;;;8.40;99.90;;;;;;5060260;28;20043;-36
2023/12/16 09:29:40;;;;;;;7.82;2.60;;;8.50;99.90;;;;;;5060252;28;20025;-37
2023/12/16 09:32:06;;;;;;;4.63;2.28;;;8.50;99.90;;;;;;5060515;28;20024;-36
2023/12/16 09:34:32;;;;;;;5.82;2.35;;;8.50;99.90;;;;;;5060389;28;20027;-37
2023/12/16 09:36:57;;;;;;;6.30;2.33;;;8.60;99.90;;;;;;5060401;28;20036;-37
2023/12/16 09:39:25;;;;;;;6.10;2.25;;;8.60;99.90;;;;;;5060100;28;20889;-36
2023/12/16 09:41:52;;;;;;;4.78;2.53;;;8.60;99.90;;;;;;5068857;28;20536;-36
2023/12/16 09:44:19;;;;;;;6.03;2.70;;;8.70;99.90;;;;;;5069628;28;20127;-36
2023/12/16 09:46:46;;;;;;;7.90;2.85;;;8.70;99.90;;;;;;5060449;28;20051;-37
2023/12/16 09:49:13;;;;;;;7.40;2.92;;;8.70;99.90;;;;;;5058966;28;20132;-37
2023/12/16 09:51:41;;;;;;;10.13;3.25;;;8.70;99.90;;;;;;5058884;28;20051;-37
2023/12/16 09:54:07;;;;;;;7.78;3.05;;;8.70;99.90;;;;;;5058205;28;20110;-37
2023/12/16 09:56:33;;;;;;;7.63;3.72;;;8.70;99.90;;;;;;5059486;28;20103;-36
2023/12/16 09:59:00;;;;;;;5.78;3.47;;;8.70;99.90;;;;;;5062588;28;20104;-37
2023/12/16 10:01:26;;;;;;;10.50;4.18;;;8.80;99.90;;;;;;5062474;28;20081;-35
2023/12/16 10:03:52;;;;;;;10.05;4.20;;;8.80;99.90;;;;;;5062273;28;20032;-36
2023/12/16 10:06:17;;;;;;;5.10;3.58;;;8.80;99.90;;;;;;5063648;28;20028;-40
2023/12/16 10:08:44;;;;;;;6.65;3.78;;;8.80;99.90;;;;;;5063731;28;20035;-35
2023/12/16 10:11:09;;;;;;;10.98;4.35;;;8.80;99.90;;;;;;5062389;28;20039;-36
2023/12/16 10:13:56;;;;;;;7.13;3.13;;;8.80;99.90;;;;;;5064358;28;20021;-35
2023/12/16 10:16:22;;;;;;;7.38;3.40;;;8.80;99.90;;;;;;5062939;28;20468;-36
2023/12/16 10:18:55;;;;;;;7.22;3.40;;;8.80;99.90;;;;;;5064513;28;20016;-36
2023/12/16 10:21:31;;;;;;;8.90;3.97;;;8.80;99.90;;;;;;5063957;28;20119;-37
2023/12/16 10:23:59;;;;;;;8.77;3.92;;;8.80;99.90;;;;;;5063682;28;20365;-38
2023/12/16 10:26:25;;;;;;;8.90;4.25;;;8.90;99.90;;;;;;5063733;28;20035;-36
2023/12/16 10:28:52;;;;;;;8.60;3.83;;;8.90;99.90;;;;;;5063738;28;20025;-37
2023/12/16 10:31:18;;;;;;;7.00;4.13;;;8.90;99.90;;;;;;5063274;28;20036;-37
2023/12/16 10:33:45;;;;;;;8.70;4.07;;;8.90;99.90;;;;;;5063705;28;20032;-36
2023/12/16 10:36:10;;;;;;;11.15;5.35;;;8.90;99.90;;;;;;5063299;28;20078;-37
2023/12/16 10:38:36;;;;;;;9.73;4.15;;;9.00;99.90;;;;;;5062658;28;20033;-37
2023/12/16 10:41:02;;;;;;;11.35;4.13;;;9.00;99.90;;;;;;5063141;28;20110;-37
2023/12/16 10:43:29;;;;;;;14.77;5.07;;;9.10;99.90;;;;;;5063646;28;20554;-37
2023/12/16 10:45:55;;;;;;;11.38;4.80;;;9.10;99.90;;;;;;5063014;28;20021;-36
2023/12/16 10:48:24;;;;;;;9.77;5.00;;;9.20;99.90;;;;;;5063718;28;20036;-37
2023/12/16 10:50:50;;;;;;;14.05;6.00;;;9.20;99.90;;;;;;5063324;28;20021;-37
2023/12/16 10:53:25;;;;;;;10.80;5.72;;;9.30;99.90;;;;;;5062280;28;20082;-36
2023/12/16 10:55:58;;;;;;;11.93;5.60;;;9.30;99.90;;;;;;5062458;28;20023;-37
2023/12/16 10:58:27;;;;;;;10.77;4.70;;;9.30;99.90;;;;;;5062193;28;20130;-37
2023/12/16 11:01:02;;;;;;;9.23;4.90;;;9.40;99.90;;;;;;5062029;28;20093;-37
2023/12/16 11:03:33;;;;;;;10.95;5.28;;;9.40;99.90;;;;;;5062702;28;20027;-37
2023/12/16 11:06:11;;;;;;;9.80;4.90;;;9.40;99.90;;;;;;5061714;28;20074;-40
2023/12/16 11:08:38;;;;;;;12.73;5.90;;;9.40;99.90;;;;;;5059543;28;20907;-37
2023/12/16 11:11:04;;;;;;;12.23;5.95;;;9.40;99.90;;;;;;5061908;28;20024;-37
2023/12/16 11:13:31;;;;;;;11.95;5.93;;;9.50;99.90;;;;;;5060676;28;20515;-44
2023/12/16 11:16:15;;;;;;;10.88;6.32;;;9.50;99.90;;;;;;5061412;28;20052;-39
2023/12/16 11:18:44;;;;;;;11.63;5.65;;;9.40;99.90;;;;;;5061828;28;20029;-37
2023/12/16 11:21:14;;;;;;;12.18;6.00;;;9.40;99.90;;;;;;5060749;28;20036;-37
2023/12/16 11:23:46;;;;;;;11.77;6.28;;;9.40;99.90;;;;;;5061690;28;20078;-37
2023/12/16 11:26:11;;;;;;;12.20;5.97;;;9.40;99.90;;;;;;5061899;28;20065;-43
2023/12/16 11:28:37;;;;;;;12.45;5.57;;;9.50;99.90;;;;;;5060281;28;20649;-37
2023/12/16 11:31:03;;;;;;;12.75;5.25;;;9.50;99.90;;;;;;5061122;28;20029;-37
2023/12/16 11:33:46;;;;;;;12.32;7.18;;;9.50;99.90;;;;;;5062290;28;20056;-36
2023/12/16 11:36:13;;;;;;;9.88;5.28;;;9.40;99.90;;;;;;5041435;28;20044;-36
2023/12/16 11:38:42;;;;;;;8.98;5.20;;;9.40;99.90;;;;;;5057003;28;20029;-39
2023/12/16 11:41:28;;;;;;;9.93;4.95;;;9.40;99.90;;;;;;5060444;28;20058;-37
2023/12/16 11:43:54;;;;;;;9.07;5.03;;;9.40;99.90;;;;;;5061381;28;20069;-36
2023/12/16 11:46:40;;;;;;;8.75;5.07;;;9.40;99.90;;;;;;5061379;28;20468;-37
2023/12/16 11:49:10;;;;;;;8.65;4.68;;;9.40;99.90;;;;;;5059984;28;20017;-37
2023/12/16 11:51:38;;;;;;;8.13;4.95;;;9.40;99.90;;;;;;4900630;28;4051933;-37
2023/12/16 11:54:05;;;;;;;7.60;4.45;;;9.40;99.90;;;;;;5056852;28;20032;-36
2023/12/16 11:56:30;;;;;;;8.65;4.50;;;9.40;99.90;;;;;;5061468;28;20021;-37
2023/12/16 11:58:59;;;;;;;9.52;4.38;;;9.40;99.90;;;;;;5059344;28;20043;-40
2023/12/16 12:01:26;;;;;;;9.32;4.65;;;9.40;99.90;;;;;;5059882;28;20119;-37
2023/12/16 12:03:52;;;;;;;9.57;5.32;;;9.40;99.90;;;;;;5059317;28;20021;-36
2023/12/16 12:06:18;;;;;;;9.45;5.15;;;9.40;99.90;;;;;;5060304;28;20619;-37
2023/12/16 12:08:46;;;;;;;9.90;5.22;;;9.40;99.90;;;;;;5060875;28;20789;-37
2023/12/16 12:11:12;;;;;;;6.60;4.63;;;9.30;99.90;;;;;;5060615;28;20029;-37
2023/12/16 12:13:38;;;;;;;7.63;5.00;;;9.40;99.90;;;;;;5061734;28;20062;-36
2023/12/16 12:16:07;;;;;;;11.60;5.03;;;9.40;99.90;;;;;;5060395;28;20096;-37
2023/12/16 12:18:33;;;;;;;8.55;5.25;;;9.40;99.90;;;;;;5061585;28;20032;-37
2023/12/16 12:21:02;;;;;;;11.32;5.22;;;9.40;99.90;;;;;;5060243;28;20036;-37
2023/12/16 12:23:27;;;;;;;12.02;5.13;;;9.40;99.90;;;;;;5061048;28;20052;-37
2023/12/16 12:25:56;;;;;;;10.40;5.22;;;9.40;99.90;;;;;;5061636;28;20123;-37
2023/12/16 12:28:22;;;;;;;9.32;5.35;;;9.40;99.90;;;;;;5062153;28;20543;-37
2023/12/16 12:30:48;;;;;;;10.55;5.93;;;9.40;99.90;;;;;;5061087;28;20043;-37
2023/12/16 12:33:13;;;;;;;7.25;4.75;;;9.40;99.90;;;;;;5061698;28;20028;-37
2023/12/16 12:35:39;;;;;;;7.05;4.95;;;9.40;99.90;;;;;;5061024;28;20029;-37
2023/12/16 12:38:05;;;;;;;10.00;5.30;;;9.40;99.90;;;;;;5060602;28;20024;-37
2023/12/16 12:40:30;;;;;;;8.63;5.07;;;9.40;99.90;;;;;;5062129;28;20039;-38
2023/12/16 12:42:58;;;;;;;9.20;5.50;;;9.40;99.90;;;;;;5062283;28;20686;-46
2023/12/16 12:45:30;;;;;;;9.45;5.47;;;9.40;99.90;;;;;;5061211;28;20063;-37
2023/12/16 12:48:15;;;;;;;9.18;5.20;;;9.40;99.90;;;;;;5061377;28;20025;-37
2023/12/16 12:50:43;;;;;;;9.85;6.30;;;9.40;99.90;;;;;;5061273;28;20024;-37
2023/12/16 12:53:18;;;;;;;9.10;5.80;;;9.40;99.90;;;;;;5060078;28;20151;-37